Time;durP1;ratioP1;P1;durP2;ratioP2;P2;SDS_P1;SDS_P2;PMS_P1;PMS_P2;Temp;Humidity;BMP_temperature;BMP_pressure;BME280_temperature;BME280_humidity;BME280_pressure;Samples;Min_cycle;Max_cycle;Signal;HPM_P1;HPM_P2
2023/04/14 03:57:28;;;;;;;6.12;3.50;;;;;;;11.16;83.64;98792.91;5270801;33;33634;-90
2023/04/14 04:00:36;;;;;;;5.18;4.47;;;;;;;11.09;87.87;98898.03;5273033;33;34041;-87
2023/04/14 04:03:42;;;;;;;5.47;3.67;;;;;;;11.11;88.51;98887.00;5263698;33;35506;-87
2023/04/14 04:06:48;;;;;;;5.05;3.67;;;;;;;11.08;89.03;98882.06;5274911;33;34139;-87
2023/04/14 04:09:52;;;;;;;5.80;4.00;;;;;;;11.09;91.76;98871.09;5274417;33;33476;-86
2023/04/14 04:12:57;;;;;;;6.10;3.70;;;;;;;11.01;88.59;98848.97;5275699;33;34242;-87
2023/04/14 04:16:01;;;;;;;6.32;4.00;;;;;;;10.93;89.74;98839.28;5260184;33;34785;-86
2023/04/14 04:19:05;;;;;;;4.72;3.72;;;;;;;10.88;88.88;98837.25;5254523;33;34713;-87
2023/04/14 04:22:10;;;;;;;6.55;3.97;;;;;;;11.00;89.29;98828.50;5272852;33;35124;-87
2023/04/14 04:25:14;;;;;;;5.18;4.18;;;;;;;11.00;88.98;98823.94;5281661;33;33936;-86
2023/04/14 04:28:20;;;;;;;6.00;4.03;;;;;;;11.00;88.83;98840.09;5276550;33;33923;-87
2023/04/14 04:31:23;;;;;;;6.05;4.40;;;;;;;10.98;89.69;98839.47;5277922;33;33604;-87
2023/04/14 04:34:31;;;;;;;8.20;4.03;;;;;;;11.00;89.56;98837.38;5272057;33;33795;-86
2023/04/14 04:37:36;;;;;;;7.47;4.03;;;;;;;11.11;87.85;98825.91;5260138;33;34710;-87
2023/04/14 04:40:40;;;;;;;6.97;4.15;;;;;;;11.17;89.05;98820.66;5273599;33;35027;-87
2023/04/14 04:43:43;;;;;;;4.40;3.92;;;;;;;11.19;88.33;98818.59;5286591;33;34045;-87
2023/04/14 04:46:53;;;;;;;5.90;4.28;;;;;;;11.25;86.85;98813.13;5301081;33;35400;-87
2023/04/14 04:49:56;;;;;;;5.05;3.95;;;;;;;11.20;88.28;98809.44;5288045;33;35307;-86
2023/04/14 04:52:59;;;;;;;6.32;4.30;;;;;;;11.22;89.23;98810.06;5287817;33;34154;-87
2023/04/14 04:56:02;;;;;;;8.27;4.57;;;;;;;11.21;89.73;98811.13;5282079;33;35436;-87
2023/04/14 04:59:05;;;;;;;7.93;4.90;;;;;;;11.17;88.30;98820.66;5242681;33;33533;-87
2023/04/14 05:02:09;;;;;;;7.75;4.82;;;;;;;11.25;88.89;98823.91;5256754;33;33907;-86
2023/04/14 05:05:12;;;;;;;8.07;4.78;;;;;;;11.17;90.06;98826.06;5255248;33;34415;-86
2023/04/14 05:08:15;;;;;;;8.63;5.57;;;;;;;11.14;89.95;98840.78;5245904;33;34172;-86
2023/04/14 05:11:19;;;;;;;10.55;5.37;;;;;;;11.12;88.04;98850.97;5255469;33;33830;-86
2023/04/14 05:14:22;;;;;;;6.53;4.57;;;;;;;11.17;88.83;98855.69;5256594;33;33555;-86
2023/04/14 05:17:27;;;;;;;9.23;4.68;;;;;;;11.11;88.05;98852.84;5257191;33;34764;-87
2023/04/14 05:20:31;;;;;;;6.47;4.28;;;;;;;11.08;87.80;98855.13;5257013;33;35296;-87
2023/04/14 05:23:37;;;;;;;7.75;4.55;;;;;;;11.07;92.00;98856.19;5256702;33;33746;-87
2023/04/14 05:26:40;;;;;;;7.35;4.37;;;;;;;11.01;89.65;98847.09;5255581;33;34783;-87
2023/04/14 05:30:03;;;;;;;6.45;4.90;;;;;;;10.98;89.02;98850.22;5237825;33;35373;-90
2023/04/14 05:33:06;;;;;;;7.65;4.15;;;;;;;11.05;90.91;98848.31;5256112;33;33528;-87
2023/04/14 05:36:09;;;;;;;9.82;4.78;;;;;;;11.04;89.98;98841.28;5257039;33;33825;-87
2023/04/14 05:39:12;;;;;;;10.45;4.60;;;;;;;11.01;90.76;98846.28;5237526;33;34734;-87
2023/04/14 05:42:15;;;;;;;10.90;4.78;;;;;;;10.97;90.38;98837.81;5262471;33;34835;-87
2023/04/14 05:45:18;;;;;;;6.97;4.75;;;;;;;11.02;89.81;98842.53;5257828;33;34253;-86
2023/04/14 05:48:23;;;;;;;6.28;4.55;;;;;;;11.08;90.26;98841.66;5252022;33;33404;-87
2023/04/14 05:51:26;;;;;;;6.80;4.68;;;;;;;11.11;91.30;98847.47;5245949;33;34047;-87
2023/04/14 05:54:29;;;;;;;6.22;4.28;;;;;;;11.12;89.59;98848.28;5251445;33;33639;-87
2023/04/14 05:57:32;;;;;;;5.90;4.78;;;;;;;11.20;90.24;98853.38;5252250;33;34126;-87
2023/04/14 06:00:35;;;;;;;7.50;5.28;;;;;;;11.15;90.27;98855.09;5251054;33;34134;-86
2023/04/14 06:03:38;;;;;;;8.13;4.65;;;;;;;11.16;90.92;98846.78;5258506;33;34014;-87
2023/04/14 06:06:42;;;;;;;6.95;4.30;;;;;;;11.21;91.63;98849.66;5258571;33;35615;-87
2023/04/14 06:09:45;;;;;;;5.45;4.30;;;;;;;11.47;89.39;98845.09;5233848;33;34032;-86
2023/04/14 06:12:48;;;;;;;6.43;4.40;;;;;;;11.70;88.87;98839.03;5244239;33;34447;-87
2023/04/14 06:15:54;;;;;;;6.28;4.50;;;;;;;11.79;87.33;98837.72;5253417;33;33887;-87
2023/04/14 06:18:57;;;;;;;5.68;4.22;;;;;;;11.60;87.45;98847.66;5254968;33;33527;-87
2023/04/14 06:22:01;;;;;;;10.88;4.70;;;;;;;11.68;87.30;98849.25;5253848;33;33948;-87
2023/04/14 06:25:04;;;;;;;8.73;4.95;;;;;;;11.84;86.52;98837.84;5242192;33;33550;-87
2023/04/14 06:28:08;;;;;;;7.68;4.82;;;;;;;12.00;86.79;98831.91;5245801;33;34724;-87
2023/04/14 06:31:13;;;;;;;6.85;4.60;;;;;;;12.09;85.99;98829.75;5250849;33;34127;-87
2023/04/14 06:34:16;;;;;;;8.95;4.93;;;;;;;12.13;86.84;98828.22;5249903;33;35292;-87
2023/04/14 06:37:19;;;;;;;9.13;4.82;;;;;;;12.11;86.05;98833.03;5248225;33;35162;-87
2023/04/14 06:40:22;;;;;;;7.28;4.65;;;;;;;12.07;84.95;98825.63;5261329;33;33734;-87
2023/04/14 06:43:27;;;;;;;7.07;5.22;;;;;;;12.04;86.59;98816.09;5238839;33;33792;-87
2023/04/14 06:46:32;;;;;;;7.65;5.00;;;;;;;12.21;86.13;98809.03;5245117;33;33897;-87
2023/04/14 06:49:35;;;;;;;6.90;5.18;;;;;;;12.10;84.82;98811.66;5258169;33;33584;-87
2023/04/14 06:52:39;;;;;;;6.87;5.10;;;;;;;12.21;86.35;98805.53;5268132;33;33797;-87
2023/04/14 06:55:42;;;;;;;7.85;4.93;;;;;;;12.19;86.07;98813.00;5244638;33;33961;-87
2023/04/14 06:58:45;;;;;;;8.18;5.32;;;;;;;12.06;86.12;98814.00;5241825;33;33879;-87
2023/04/14 07:01:48;;;;;;;8.85;5.32;;;;;;;12.09;85.82;98818.13;5228283;33;34417;-87
2023/04/14 07:04:51;;;;;;;8.20;5.25;;;;;;;12.14;86.24;98818.25;5255568;33;33424;-87
2023/04/14 07:07:54;;;;;;;8.68;4.60;;;;;;;12.21;88.89;98813.63;5228739;33;33573;-87
2023/04/14 07:11:15;;;;;;;6.00;4.22;;;;;;;12.36;87.58;98815.91;5227077;33;33659;-87
2023/04/14 07:14:18;;;;;;;7.20;4.87;;;;;;;12.43;84.40;98809.38;5247114;33;35201;-87
2023/04/14 07:17:21;;;;;;;7.22;4.70;;;;;;;12.48;84.88;98801.41;5245332;33;33821;-87
2023/04/14 07:20:24;;;;;;;7.03;4.97;;;;;;;12.55;84.94;98805.88;5261788;33;33381;-87
2023/04/14 07:23:28;;;;;;;6.53;4.80;;;;;;;12.69;84.28;98801.94;5248719;33;35363;-90
2023/04/14 07:26:31;;;;;;;11.18;4.97;;;;;;;12.70;84.73;98800.91;5259569;33;34236;-91
2023/04/14 07:29:36;;;;;;;8.05;5.25;;;;;;;12.68;83.12;98806.53;5243769;33;35396;-89
2023/04/14 07:32:39;;;;;;;8.93;5.30;;;;;;;12.57;84.33;98801.91;5249807;33;33949;-88
2023/04/14 07:35:42;;;;;;;8.07;4.80;;;;;;;12.82;84.73;98793.66;5250705;33;33761;-88
2023/04/14 07:39:02;;;;;;;9.10;5.90;;;;;;;13.07;84.60;98792.62;5245487;33;34396;-88
2023/04/14 07:42:05;;;;;;;6.82;4.82;;;;;;;13.32;81.59;98787.88;5248270;33;34092;-86
2023/04/14 07:45:09;;;;;;;7.40;5.03;;;;;;;13.36;82.42;98793.62;5268736;33;34918;-88
2023/04/14 07:48:12;;;;;;;8.10;5.03;;;;;;;13.49;80.38;98788.00;5244973;33;33664;-86
2023/04/14 07:51:15;;;;;;;9.15;5.22;;;;;;;13.49;80.24;98790.72;5246366;33;32339;-88
2023/04/14 07:54:18;;;;;;;9.30;4.72;;;;;;;13.35;81.56;98786.59;5259913;33;34326;-87
2023/04/14 07:57:40;;;;;;;7.50;5.25;;;;;;;13.01;84.67;98790.88;5289264;28;33775;-87
2023/04/14 08:00:46;;;;;;;7.55;4.80;;;;;;;12.85;86.83;98785.09;5367634;28;34881;-88
2023/04/14 08:03:54;;;;;;;7.65;4.85;;;;;;;12.80;86.19;98787.66;5303035;33;33818;-87
2023/04/14 08:41:08;;;;;;;7.28;4.80;;;;;;;12.77;87.36;98777.31;3428803;28;20081;-85
2023/04/14 08:44:16;;;;;;;10.63;5.05;;;;;;;12.63;88.81;98789.37;5292535;33;35305;-89
2023/04/14 08:47:23;;;;;;;8.30;4.65;;;;;;;12.60;88.67;98785.25;5293017;33;35275;-85
2023/04/14 08:50:32;;;;;;;6.57;4.72;;;;;;;12.58;90.54;98784.69;5356573;28;35370;-87
2023/04/14 08:54:06;;;;;;;6.78;4.97;;;;;;;12.45;92.74;98791.06;5280512;33;33491;-88
2023/04/14 08:57:14;;;;;;;10.45;5.47;;;;;;;12.42;92.28;98802.31;5254373;33;34207;-88
2023/04/14 09:00:18;;;;;;;6.65;4.95;;;;;;;12.20;95.35;98803.87;5260568;33;34056;-89
2023/04/14 09:03:22;;;;;;;8.70;5.10;;;;;;;12.05;97.57;98812.37;5264382;33;33952;-88
2023/04/14 09:06:26;;;;;;;7.25;4.93;;;;;;;11.88;100.00;98812.16;5270874;33;35504;-86
2023/04/14 09:09:30;;;;;;;8.18;5.40;;;;;;;11.86;100.00;98813.41;5247885;33;35189;-88
2023/04/14 09:12:35;;;;;;;8.38;5.75;;;;;;;11.56;100.00;98808.72;5262985;33;35012;-89
2023/04/14 09:15:38;;;;;;;8.75;5.55;;;;;;;11.16;100.00;98813.66;5264193;33;34092;-87
2023/04/14 09:18:41;;;;;;;7.60;5.28;;;;;;;11.03;100.00;98809.19;5264387;33;33680;-87
2023/04/14 09:21:50;;;;;;;9.95;6.00;;;;;;;10.95;100.00;98821.06;5257560;33;34162;-87
2023/04/14 09:24:57;;;;;;;10.70;6.00;;;;;;;10.92;100.00;98828.75;5264470;33;34053;-88
2023/04/14 09:28:00;;;;;;;10.68;6.30;;;;;;;10.95;100.00;98826.44;5265780;33;34033;-88
2023/04/14 09:31:03;;;;;;;7.22;5.80;;;;;;;10.88;100.00;98837.25;5261597;33;33824;-89
2023/04/14 09:34:16;;;;;;;9.45;6.15;;;;;;;10.85;100.00;98829.63;5256852;33;33686;-87
2023/04/14 09:37:20;;;;;;;8.40;6.10;;;;;;;10.85;100.00;98832.31;5280904;33;34087;-88
2023/04/14 09:40:30;;;;;;;11.52;6.03;;;;;;;10.77;100.00;98831.75;5298002;28;35297;-88
2023/04/14 09:43:35;;;;;;;9.48;6.22;;;;;;;10.73;100.00;98836.72;5364199;28;34007;-87
2023/04/14 09:47:04;;;;;;;9.82;6.10;;;;;;;10.57;100.00;98842.63;5345597;28;34120;-87
2023/04/14 09:51:08;;;;;;;10.23;5.80;;;;;;;10.73;100.00;98831.34;3696535;31;20089;-88
2023/04/14 09:54:23;;;;;;;17.02;6.28;;;;;;;10.76;100.00;98820.13;5318137;28;34242;-89
2023/04/14 09:57:27;;;;;;;10.68;6.95;;;;;;;10.77;100.00;98818.28;5265096;33;317070;-88
2023/04/14 10:00:31;;;;;;;12.55;6.70;;;;;;;10.64;100.00;98811.09;5273165;33;34107;-89
2023/04/14 10:04:08;;;;;;;13.23;7.05;;;;;;;10.73;100.00;98817.06;5734410;28;33474;-88
2023/04/14 10:07:11;;;;;;;14.35;6.75;;;;;;;10.86;100.00;98806.22;5251379;33;34364;-89
2023/04/14 10:10:15;;;;;;;11.38;6.50;;;;;;;10.87;100.00;98821.31;5243524;33;33405;-89
2023/04/14 10:13:18;;;;;;;11.60;7.28;;;;;;;10.83;100.00;98818.25;5256256;33;34466;-88
2023/04/14 10:16:24;;;;;;;9.23;6.55;;;;;;;10.86;100.00;98814.28;5292646;28;34018;-89
2023/04/14 10:19:28;;;;;;;10.65;6.72;;;;;;;11.10;100.00;98812.66;5266201;33;33829;-88
2023/04/14 10:26:35;;;;;;;11.80;6.82;;;;;;;11.02;100.00;98821.00;2349592;31;20081;-88
2023/04/14 10:29:40;;;;;;;13.20;7.28;;;;;;;10.89;100.00;98822.75;5300545;33;34090;-88
2023/04/14 10:32:44;;;;;;;12.98;7.28;;;;;;;10.67;100.00;98827.66;5315699;33;35148;-88
2023/04/14 10:35:54;;;;;;;12.50;7.72;;;;;;;10.65;100.00;98824.38;5303330;33;34626;-88
2023/04/14 10:39:01;;;;;;;11.93;7.00;;;;;;;10.62;100.00;98819.41;5314216;33;34609;-88
2023/04/14 10:42:05;;;;;;;13.23;7.00;;;;;;;10.45;100.00;98823.66;5313506;33;33935;-88
2023/04/14 10:45:09;;;;;;;12.32;6.97;;;;;;;10.36;100.00;98824.94;5299154;33;34336;-88
2023/04/14 10:48:12;;;;;;;11.82;6.85;;;;;;;10.36;100.00;98819.56;5314397;33;33888;-88
2023/04/14 10:51:17;;;;;;;16.25;7.70;;;;;;;10.35;100.00;98817.91;5313104;33;33563;-87
2023/04/14 10:54:20;;;;;;;12.55;7.07;;;;;;;10.34;100.00;98821.63;5308974;33;34528;-88
2023/04/14 10:57:25;;;;;;;13.43;7.57;;;;;;;10.37;100.00;98816.66;5293991;33;33686;-88
2023/04/14 11:00:30;;;;;;;11.77;7.07;;;;;;;10.41;100.00;98809.81;5297656;33;34176;-88
2023/04/14 11:03:43;;;;;;;11.12;6.87;;;;;;;10.54;100.00;98813.47;5499652;28;33321;-88
2023/04/14 11:06:52;;;;;;;14.98;7.62;;;;;;;10.64;100.00;98809.25;5346921;28;33472;-89
2023/04/14 11:14:10;;;;;;;13.60;7.47;;;;;;;10.77;100.00;98800.28;1592130;28;20081;-88
2023/04/14 11:17:23;;;;;;;12.98;7.37;;;;;;;10.82;100.00;98799.59;5303555;33;34722;-85
2023/04/14 11:20:26;;;;;;;12.50;6.82;;;;;;;10.87;100.00;98805.16;5303745;33;34088;-85
2023/04/14 11:23:30;;;;;;;12.73;7.20;;;;;;;10.93;100.00;98796.22;5293969;33;33895;-86
2023/04/14 11:26:33;;;;;;;13.10;7.18;;;;;;;10.85;100.00;98793.78;5303236;33;34108;-86
2023/04/14 11:29:37;;;;;;;11.98;7.45;;;;;;;10.86;100.00;98790.88;5278009;33;33893;-86
2023/04/14 11:32:56;;;;;;;12.55;6.75;;;;;;;10.98;100.00;98791.00;5288829;33;35468;-86
2023/04/14 11:36:01;;;;;;;11.93;6.78;;;;;;;10.90;100.00;98785.88;5317549;33;33749;-86
2023/04/14 11:39:05;;;;;;;10.55;6.68;;;;;;;10.84;100.00;98784.88;5304953;33;33543;-86
2023/04/14 11:42:09;;;;;;;14.45;7.30;;;;;;;10.84;100.00;98784.06;5316403;33;34054;-85
2023/04/14 11:45:14;;;;;;;12.15;7.55;;;;;;;10.80;100.00;98789.06;5293442;33;33874;-84
2023/04/14 11:48:19;;;;;;;13.15;7.12;;;;;;;10.80;100.00;98785.56;5310140;33;34284;-84
2023/04/14 11:51:32;;;;;;;13.27;7.05;;;;;;;10.71;100.00;98787.69;5316205;33;34375;-86
2023/04/14 11:54:39;;;;;;;9.85;5.93;;;;;;;10.67;100.00;98784.59;5281202;33;34946;-85
2023/04/14 11:57:45;;;;;;;10.90;6.57;;;;;;;10.73;100.00;98782.88;5304254;33;34370;-84
2023/04/14 12:00:50;;;;;;;13.50;6.60;;;;;;;10.70;100.00;98782.50;5316727;33;33487;-83
2023/04/14 12:04:01;;;;;;;14.07;6.32;;;;;;;10.70;100.00;98783.31;5311887;33;35350;-83
2023/04/14 12:07:28;;;;;;;10.40;5.53;;;;;;;10.55;100.00;98780.13;5293525;33;35109;-89
2023/04/14 12:10:32;;;;;;;7.93;4.85;;;;;;;10.55;100.00;98770.19;5302434;33;35357;-89
2023/04/14 12:13:40;;;;;;;9.80;5.50;;;;;;;10.46;100.00;98768.78;5302125;33;34029;-89
2023/04/14 12:16:50;;;;;;;11.57;5.82;;;;;;;10.41;100.00;98772.16;5301350;33;34168;-85
2023/04/14 12:23:57;;;;;;;8.10;5.22;;;;;;;10.26;100.00;98765.38;5408681;28;20118;-84
2023/04/14 12:27:03;;;;;;;8.32;6.07;;;;;;;10.30;100.00;98763.94;5295340;33;33961;-84
2023/04/14 12:30:08;;;;;;;9.68;6.07;;;;;;;10.40;100.00;98754.34;5309709;33;34293;-87
2023/04/14 12:33:12;;;;;;;10.10;5.97;;;;;;;10.40;100.00;98746.28;5316218;33;34439;-84
2023/04/14 12:36:16;;;;;;;8.18;4.45;;;;;;;10.30;100.00;98726.28;5316780;33;34621;-85
2023/04/14 12:39:23;;;;;;;5.07;3.05;;;;;;;10.13;100.00;98728.63;5304045;33;33774;-85
2023/04/14 12:42:27;;;;;;;3.90;3.20;;;;;;;9.87;100.00;98748.41;5316199;33;34226;-84
2023/04/14 12:45:47;;;;;;;5.68;4.00;;;;;;;9.81;100.00;98757.31;5320917;33;32657;-85
2023/04/14 12:48:52;;;;;;;6.18;3.75;;;;;;;9.75;100.00;98770.56;5308482;33;34140;-86
2023/04/14 12:51:55;;;;;;;6.07;3.75;;;;;;;9.75;100.00;98775.09;5306100;33;33298;-85
2023/04/14 12:54:58;;;;;;;7.65;4.45;;;;;;;9.65;100.00;98785.47;5284337;33;34397;-85
2023/04/14 12:58:03;;;;;;;6.45;4.70;;;;;;;9.60;100.00;98788.78;5289690;33;34568;-85
2023/04/14 13:01:07;;;;;;;6.28;4.68;;;;;;;9.72;100.00;98791.66;5309808;33;34110;-85
2023/04/14 13:04:10;;;;;;;8.13;5.03;;;;;;;9.67;100.00;98800.34;5289458;33;34731;-84
2023/04/14 13:07:14;;;;;;;6.50;5.12;;;;;;;9.60;100.00;98804.91;5307636;33;34005;-88
2023/04/14 13:10:18;;;;;;;6.60;5.30;;;;;;;9.63;100.00;98831.38;5285009;33;34296;-89
2023/04/14 13:13:22;;;;;;;4.78;4.25;;;;;;;9.66;100.00;98832.81;5269469;33;33523;-89
2023/04/14 13:16:26;;;;;;;6.03;5.10;;;;;;;9.58;100.00;98836.53;5285226;33;33889;-85
2023/04/14 13:19:30;;;;;;;7.40;5.10;;;;;;;9.50;100.00;98836.75;5266412;33;33912;-85
2023/04/14 13:22:33;;;;;;;6.10;4.60;;;;;;;9.55;100.00;98823.53;5280814;33;33812;-85
2023/04/14 13:25:36;;;;;;;6.55;3.72;;;;;;;9.68;100.00;98815.44;5280186;33;33617;-85
2023/04/14 13:28:39;;;;;;;5.68;2.58;;;;;;;9.61;100.00;98828.06;5296676;33;33826;-85
2023/04/14 13:31:42;;;;;;;2.40;2.20;;;;;;;9.45;100.00;98831.19;5285074;33;32381;-85
2023/04/14 13:34:45;;;;;;;2.28;2.03;;;;;;;9.49;100.00;98837.78;5286349;33;33609;-85
2023/04/14 13:37:48;;;;;;;1.90;1.60;;;;;;;9.56;100.00;98845.84;5286385;33;33652;-85
2023/04/14 13:40:51;;;;;;;1.95;1.73;;;;;;;9.12;100.00;98849.97;5296533;33;34383;-85
2023/04/14 13:43:53;;;;;;;2.80;2.30;;;;;;;8.85;100.00;98858.84;5280499;33;34170;-85
2023/04/14 13:46:56;;;;;;;3.75;3.10;;;;;;;8.93;100.00;98862.38;5297011;33;33563;-85
2023/04/14 13:49:59;;;;;;;4.50;2.95;;;;;;;8.95;100.00;98852.22;5278039;33;33379;-85
2023/04/14 13:53:05;;;;;;;5.32;3.87;;;;;;;9.04;100.00;98851.03;5292741;33;33923;-85
2023/04/14 13:56:09;;;;;;;4.60;3.58;;;;;;;9.14;100.00;98842.56;5294721;33;34183;-85
2023/04/14 13:59:14;;;;;;;3.85;3.45;;;;;;;9.12;100.00;98856.19;5298113;33;33915;-85
2023/04/14 14:02:17;;;;;;;4.18;3.78;;;;;;;9.22;100.00;98859.28;5290260;33;33622;-85
2023/04/14 14:05:20;;;;;;;6.18;3.70;;;;;;;9.27;100.00;98858.66;5279408;33;34146;-85
2023/04/14 14:08:23;;;;;;;6.50;4.40;;;;;;;9.36;100.00;98845.84;5285716;33;34733;-85
2023/04/14 14:11:26;;;;;;;4.22;3.58;;;;;;;9.32;100.00;98846.25;5285932;33;34006;-85
2023/04/14 14:14:29;;;;;;;4.43;3.47;;;;;;;9.35;100.00;98849.56;5278394;33;33381;-85
2023/04/14 14:17:32;;;;;;;4.45;3.50;;;;;;;9.35;100.00;98866.50;5302435;33;33802;-85
2023/04/14 14:20:35;;;;;;;3.40;3.10;;;;;;;9.39;100.00;98866.91;5292719;33;33428;-85
2023/04/14 14:23:38;;;;;;;4.72;3.08;;;;;;;9.28;100.00;98865.69;5295897;33;35108;-85
2023/04/14 14:26:40;;;;;;;3.50;3.20;;;;;;;9.15;100.00;98873.72;5311070;33;34153;-85
2023/04/14 14:29:43;;;;;;;4.43;3.45;;;;;;;9.07;100.00;98867.56;5284781;33;33768;-85
2023/04/14 14:32:46;;;;;;;5.03;4.20;;;;;;;8.93;100.00;98867.75;5298511;33;33846;-85
2023/04/14 14:35:49;;;;;;;3.92;3.00;;;;;;;8.95;100.00;98873.72;5286410;33;34849;-85
2023/04/14 14:38:52;;;;;;;2.65;2.45;;;;;;;8.85;100.00;98887.53;5298403;33;33765;-85
2023/04/14 14:41:55;;;;;;;2.08;1.92;;;;;;;8.64;100.00;98901.94;5285213;33;34905;-85
2023/04/14 14:44:58;;;;;;;2.42;2.22;;;;;;;8.51;100.00;98901.88;5295542;33;34145;-85
2023/04/14 14:48:03;;;;;;;3.10;2.50;;;;;;;8.44;100.00;98898.34;5309311;33;33689;-85
2023/04/14 14:51:06;;;;;;;2.60;2.40;;;;;;;8.40;100.00;98892.56;5308801;33;33887;-85
2023/04/14 14:54:09;;;;;;;3.10;2.80;;;;;;;8.33;100.00;98895.16;5296285;33;33758;-85
2023/04/14 14:57:12;;;;;;;4.75;3.83;;;;;;;8.28;100.00;98902.19;5295682;33;33924;-85
2023/04/14 15:00:15;;;;;;;4.37;3.17;;;;;;;8.18;100.00;98915.94;5295935;33;34845;-85
2023/04/14 15:03:19;;;;;;;3.15;2.80;;;;;;;8.21;100.00;98933.47;5298162;33;33750;-85
2023/04/14 15:06:22;;;;;;;2.83;2.62;;;;;;;8.10;100.00;98926.81;5300411;33;35078;-85
2023/04/14 15:09:25;;;;;;;2.92;2.55;;;;;;;8.06;100.00;98934.44;5308079;33;33828;-85
2023/04/14 15:12:28;;;;;;;3.00;2.80;;;;;;;7.99;100.00;98932.75;5296895;33;34758;-85
2023/04/14 15:15:33;;;;;;;3.42;3.10;;;;;;;8.00;100.00;98939.75;5284035;33;34797;-85
2023/04/14 15:18:36;;;;;;;4.18;3.17;;;;;;;8.04;100.00;98938.31;5314540;33;33565;-85
2023/04/14 15:21:39;;;;;;;3.90;3.50;;;;;;;8.02;100.00;98946.56;5307208;33;34225;-85
2023/04/14 15:24:42;;;;;;;4.65;3.95;;;;;;;8.05;100.00;98948.03;5297905;33;34948;-89
2023/04/14 15:27:45;;;;;;;5.10;4.18;;;;;;;8.13;100.00;98955.91;5287703;33;33573;-89
2023/04/14 15:30:48;;;;;;;4.05;3.67;;;;;;;8.10;100.00;98951.78;5290368;33;34311;-89
2023/04/14 15:33:51;;;;;;;5.10;4.45;;;;;;;8.16;100.00;98950.13;5312332;33;34789;-89
2023/04/14 15:36:54;;;;;;;3.55;3.17;;;;;;;8.20;100.00;98950.59;5307726;33;35265;-86
2023/04/14 15:39:56;;;;;;;4.47;3.72;;;;;;;8.13;100.00;98959.44;5320677;33;33761;-86
2023/04/14 15:43:00;;;;;;;4.85;3.78;;;;;;;8.04;100.00;98959.75;5311907;33;35387;-86
2023/04/14 15:46:02;;;;;;;5.32;3.78;;;;;;;7.94;100.00;98952.09;5300678;33;34333;-85
2023/04/14 15:49:05;;;;;;;4.20;3.60;;;;;;;7.91;100.00;98964.00;5285072;33;34043;-85
2023/04/14 15:52:09;;;;;;;4.40;4.00;;;;;;;7.81;100.00;98962.69;5295582;33;35217;-85
